sensor_id;sensor_type;location;lat;lon;timestamp;pressure;altitude;pressure_sealevel;temperature;humidity
72612;BME280;60655;52.182;4.474;2022-08-16T00:00:39;100610.63;;;20.44;80.26
72612;BME280;60655;52.182;4.474;2022-08-16T00:02:42;100608.22;;;20.43;80.43
72612;BME280;60655;52.182;4.474;2022-08-16T00:04:43;100604.75;;;20.37;80.37
72612;BME280;60655;52.182;4.474;2022-08-16T00:06:44;100614.72;;;20.37;80.73
72612;BME280;60655;52.182;4.474;2022-08-16T00:08:45;100616.38;;;20.33;80.77
72612;BME280;60655;52.182;4.474;2022-08-16T00:10:46;100613.16;;;20.31;81.48
72612;BME280;60655;52.182;4.474;2022-08-16T00:12:47;100613.09;;;20.36;81.18
72612;BME280;60655;52.182;4.474;2022-08-16T00:14:48;100616.53;;;20.46;80.27
72612;BME280;60655;52.182;4.474;2022-08-16T00:16:49;100612.31;;;20.35;80.37
72612;BME280;60655;52.182;4.474;2022-08-16T00:18:50;100629.88;;;20.33;80.92
72612;BME280;60655;52.182;4.474;2022-08-16T00:20:51;100620.72;;;20.29;80.93
72612;BME280;60655;52.182;4.474;2022-08-16T00:22:53;100620.22;;;20.27;81.02
72612;BME280;60655;52.182;4.474;2022-08-16T00:24:54;100625.03;;;20.30;80.96
72612;BME280;60655;52.182;4.474;2022-08-16T00:26:55;100624.34;;;20.19;81.42
72612;BME280;60655;52.182;4.474;2022-08-16T00:28:56;100618.69;;;20.20;81.50
72612;BME280;60655;52.182;4.474;2022-08-16T00:30:57;100629.69;;;20.24;82.26
72612;BME280;60655;52.182;4.474;2022-08-16T00:32:59;100633.94;;;20.30;82.14
72612;BME280;60655;52.182;4.474;2022-08-16T00:35:00;100630.88;;;20.42;80.55
72612;BME280;60655;52.182;4.474;2022-08-16T00:37:02;100627.56;;;20.50;80.38
72612;BME280;60655;52.182;4.474;2022-08-16T00:39:03;100628.00;;;20.57;79.77
72612;BME280;60655;52.182;4.474;2022-08-16T00:41:04;100620.38;;;20.64;79.40
72612;BME280;60655;52.182;4.474;2022-08-16T00:43:10;100626.47;;;20.75;78.50
72612;BME280;60655;52.182;4.474;2022-08-16T00:47:27;100628.19;;;20.66;79.76
72612;BME280;60655;52.182;4.474;2022-08-16T00:49:28;100623.94;;;20.60;80.51
72612;BME280;60655;52.182;4.474;2022-08-16T00:51:30;100626.75;;;20.49;81.09
72612;BME280;60655;52.182;4.474;2022-08-16T00:53:31;100626.75;;;20.49;80.68
72612;BME280;60655;52.182;4.474;2022-08-16T00:55:34;100626.44;;;20.51;80.65
72612;BME280;60655;52.182;4.474;2022-08-16T00:57:36;100631.94;;;20.46;80.81
72612;BME280;60655;52.182;4.474;2022-08-16T00:59:38;100629.22;;;20.46;80.80
72612;BME280;60655;52.182;4.474;2022-08-16T01:01:40;100632.28;;;20.34;81.04
72612;BME280;60655;52.182;4.474;2022-08-16T01:03:45;100622.28;;;20.35;80.90
72612;BME280;60655;52.182;4.474;2022-08-16T01:05:47;100616.41;;;20.28;81.15
72612;BME280;60655;52.182;4.474;2022-08-16T01:07:48;100630.47;;;20.24;81.15
72612;BME280;60655;52.182;4.474;2022-08-16T01:09:49;100631.81;;;20.27;81.05
72612;BME280;60655;52.182;4.474;2022-08-16T01:11:50;100629.06;;;20.32;80.60
72612;BME280;60655;52.182;4.474;2022-08-16T01:13:55;100626.13;;;20.29;80.81
72612;BME280;60655;52.182;4.474;2022-08-16T01:16:00;100629.84;;;20.38;80.43
72612;BME280;60655;52.182;4.474;2022-08-16T01:18:04;100620.16;;;20.32;80.16
72612;BME280;60655;52.182;4.474;2022-08-16T01:20:08;100609.94;;;20.29;80.64
72612;BME280;60655;52.182;4.474;2022-08-16T01:22:18;100616.38;;;20.33;80.30
72612;BME280;60655;52.182;4.474;2022-08-16T01:26:29;100618.47;;;20.12;81.84
72612;BME280;60655;52.182;4.474;2022-08-16T01:28:32;100615.59;;;20.03;82.13
72612;BME280;60655;52.182;4.474;2022-08-16T01:30:36;100613.38;;;20.10;81.33
72612;BME280;60655;52.182;4.474;2022-08-16T01:32:38;100609.06;;;20.09;81.28
72612;BME280;60655;52.182;4.474;2022-08-16T01:34:42;100617.13;;;20.14;81.44
72612;BME280;60655;52.182;4.474;2022-08-16T01:36:44;100614.47;;;20.09;82.19
72612;BME280;60655;52.182;4.474;2022-08-16T01:38:47;100614.19;;;20.11;81.77
72612;BME280;60655;52.182;4.474;2022-08-16T01:40:52;100608.59;;;20.02;81.57
72612;BME280;60655;52.182;4.474;2022-08-16T01:42:54;100626.06;;;20.10;81.46
72612;BME280;60655;52.182;4.474;2022-08-16T01:44:55;100616.06;;;20.10;80.95
72612;BME280;60655;52.182;4.474;2022-08-16T01:46:56;100617.72;;;20.06;81.40
72612;BME280;60655;52.182;4.474;2022-08-16T01:49:05;100622.22;;;20.16;80.59
72612;BME280;60655;52.182;4.474;2022-08-16T01:51:07;100619.41;;;19.97;81.69
72612;BME280;60655;52.182;4.474;2022-08-16T01:53:09;100631.78;;;20.03;81.47
72612;BME280;60655;52.182;4.474;2022-08-16T01:55:10;100621.31;;;19.97;81.82
72612;BME280;60655;52.182;4.474;2022-08-16T01:57:11;100625.72;;;19.87;81.89
72612;BME280;60655;52.182;4.474;2022-08-16T01:59:13;100628.78;;;20.05;81.78
72612;BME280;60655;52.182;4.474;2022-08-16T02:01:14;100618.91;;;19.95;81.62
72612;BME280;60655;52.182;4.474;2022-08-16T02:03:15;100631.03;;;19.93;81.68
72612;BME280;60655;52.182;4.474;2022-08-16T02:05:16;100634.06;;;19.91;81.81
72612;BME280;60655;52.182;4.474;2022-08-16T02:07:21;100623.75;;;19.93;81.18
72612;BME280;60655;52.182;4.474;2022-08-16T02:09:23;100627.25;;;19.94;81.05
72612;BME280;60655;52.182;4.474;2022-08-16T02:11:25;100630.59;;;19.85;81.69
72612;BME280;60655;52.182;4.474;2022-08-16T02:13:26;100621.69;;;19.85;81.52
72612;BME280;60655;52.182;4.474;2022-08-16T02:15:27;100625.44;;;19.89;81.13
72612;BME280;60655;52.182;4.474;2022-08-16T02:17:29;100620.94;;;19.79;81.53
72612;BME280;60655;52.182;4.474;2022-08-16T02:19:31;100621.28;;;19.68;82.34
72612;BME280;60655;52.182;4.474;2022-08-16T02:21:33;100610.47;;;19.73;81.95
72612;BME280;60655;52.182;4.474;2022-08-16T02:23:36;100610.72;;;19.76;82.07
72612;BME280;60655;52.182;4.474;2022-08-16T02:25:37;100610.59;;;19.92;81.48
72612;BME280;60655;52.182;4.474;2022-08-16T02:27:39;100611.88;;;19.94;81.66
72612;BME280;60655;52.182;4.474;2022-08-16T02:29:40;100614.47;;;20.09;80.88
72612;BME280;60655;52.182;4.474;2022-08-16T02:31:43;100611.16;;;20.17;80.43
72612;BME280;60655;52.182;4.474;2022-08-16T02:33:44;100603.97;;;20.08;80.92
72612;BME280;60655;52.182;4.474;2022-08-16T02:35:45;100597.31;;;19.95;81.61
72612;BME280;60655;52.182;4.474;2022-08-16T02:37:46;100604.75;;;20.08;81.34
72612;BME280;60655;52.182;4.474;2022-08-16T02:39:47;100612.94;;;19.98;81.66
72612;BME280;60655;52.182;4.474;2022-08-16T02:41:50;100597.91;;;19.92;82.24
72612;BME280;60655;52.182;4.474;2022-08-16T02:43:51;100592.03;;;19.85;82.25
72612;BME280;60655;52.182;4.474;2022-08-16T02:45:52;100588.53;;;19.84;82.49
72612;BME280;60655;52.182;4.474;2022-08-16T02:47:54;100608.22;;;19.85;82.69
72612;BME280;60655;52.182;4.474;2022-08-16T02:49:55;100594.78;;;19.80;83.00
72612;BME280;60655;52.182;4.474;2022-08-16T02:51:56;100596.81;;;19.93;82.36
72612;BME280;60655;52.182;4.474;2022-08-16T02:53:57;100598.00;;;19.82;83.09
72612;BME280;60655;52.182;4.474;2022-08-16T02:55:59;100600.94;;;19.85;83.05
72612;BME280;60655;52.182;4.474;2022-08-16T02:58:00;100602.03;;;19.84;82.50
72612;BME280;60655;52.182;4.474;2022-08-16T03:00:04;100599.66;;;20.07;81.14
72612;BME280;60655;52.182;4.474;2022-08-16T03:02:09;100590.50;;;20.03;80.91
72612;BME280;60655;52.182;4.474;2022-08-16T03:04:10;100599.47;;;20.22;79.97
72612;BME280;60655;52.182;4.474;2022-08-16T03:06:11;100610.28;;;20.22;79.79
72612;BME280;60655;52.182;4.474;2022-08-16T03:08:14;100601.38;;;20.21;79.93
72612;BME280;60655;52.182;4.474;2022-08-16T03:10:15;100598.88;;;20.01;80.93
72612;BME280;60655;52.182;4.474;2022-08-16T03:12:15;100598.88;;;20.01;81.32
72612;BME280;60655;52.182;4.474;2022-08-16T03:14:18;100606.41;;;20.04;81.34
72612;BME280;60655;52.182;4.474;2022-08-16T03:16:21;100613.19;;;20.02;81.31
72612;BME280;60655;52.182;4.474;2022-08-16T03:18:22;100603.53;;;19.96;81.54
72612;BME280;60655;52.182;4.474;2022-08-16T03:20:24;100600.31;;;19.94;81.54
72612;BME280;60655;52.182;4.474;2022-08-16T03:22:25;100616.53;;;20.17;80.22
72612;BME280;60655;52.182;4.474;2022-08-16T03:24:26;100622.31;;;20.06;80.84
72612;BME280;60655;52.182;4.474;2022-08-16T03:26:28;100615.59;;;20.03;80.88
72612;BME280;60655;52.182;4.474;2022-08-16T03:28:29;100621.59;;;19.95;81.49
72612;BME280;60655;52.182;4.474;2022-08-16T03:30:33;100609.25;;;19.89;81.85
72612;BME280;60655;52.182;4.474;2022-08-16T03:32:34;100611.75;;;20.09;80.55
72612;BME280;60655;52.182;4.474;2022-08-16T03:34:35;100611.81;;;20.04;80.60
72612;BME280;60655;52.182;4.474;2022-08-16T03:36:36;100611.56;;;20.01;80.82
72612;BME280;60655;52.182;4.474;2022-08-16T03:38:37;100617.63;;;19.87;81.37
72612;BME280;60655;52.182;4.474;2022-08-16T03:40:38;100607.13;;;19.86;81.34
72612;BME280;60655;52.182;4.474;2022-08-16T03:42:39;100614.31;;;19.96;81.11
72612;BME280;60655;52.182;4.474;2022-08-16T03:44:40;100603.88;;;19.89;81.25
72612;BME280;60655;52.182;4.474;2022-08-16T03:46:43;100617.25;;;19.99;80.35
72612;BME280;60655;52.182;4.474;2022-08-16T03:48:44;100626.06;;;19.76;82.18
72612;BME280;60655;52.182;4.474;2022-08-16T03:50:45;100622.56;;;19.75;82.40
72612;BME280;60655;52.182;4.474;2022-08-16T03:52:46;100626.81;;;19.86;81.51
72612;BME280;60655;52.182;4.474;2022-08-16T03:54:48;100609.91;;;19.76;81.48
72612;BME280;60655;52.182;4.474;2022-08-16T03:56:49;100605.69;;;19.94;80.59
72612;BME280;60655;52.182;4.474;2022-08-16T03:58:50;100615.91;;;19.97;80.22
72612;BME280;60655;52.182;4.474;2022-08-16T04:00:51;100586.81;;;19.65;80.89
72612;BME280;60655;52.182;4.474;2022-08-16T04:02:55;100610.19;;;19.74;81.56
72612;BME280;60655;52.182;4.474;2022-08-16T04:04:56;100610.53;;;19.97;80.00
72612;BME280;60655;52.182;4.474;2022-08-16T04:06:58;100622.19;;;19.92;80.22
72612;BME280;60655;52.182;4.474;2022-08-16T04:08:58;100620.94;;;19.79;81.36
72612;BME280;60655;52.182;4.474;2022-08-16T04:11:03;100626.69;;;19.97;80.32
72612;BME280;60655;52.182;4.474;2022-08-16T04:13:04;100629.06;;;20.03;79.54
72612;BME280;60655;52.182;4.474;2022-08-16T04:15:11;100631.91;;;19.88;80.40
72612;BME280;60655;52.182;4.474;2022-08-16T04:17:13;100638.03;;;19.94;80.29
72612;BME280;60655;52.182;4.474;2022-08-16T04:19:15;100635.94;;;19.91;80.45
72612;BME280;60655;52.182;4.474;2022-08-16T04:21:16;100642.19;;;19.86;80.71
72612;BME280;60655;52.182;4.474;2022-08-16T04:23:17;100635.75;;;19.82;80.91
72612;BME280;60655;52.182;4.474;2022-08-16T04:25:19;100648.13;;;19.83;80.76
72612;BME280;60655;52.182;4.474;2022-08-16T04:27:20;100639.88;;;19.69;80.99
72612;BME280;60655;52.182;4.474;2022-08-16T04:29:21;100641.13;;;19.82;80.41
72612;BME280;60655;52.182;4.474;2022-08-16T04:31:22;100645.84;;;19.95;79.80
72612;BME280;60655;52.182;4.474;2022-08-16T04:33:23;100645.66;;;19.92;79.86
72612;BME280;60655;52.182;4.474;2022-08-16T04:35:25;100651.44;;;20.04;79.16
72612;BME280;60655;52.182;4.474;2022-08-16T04:37:26;100654.00;;;19.90;79.73
72612;BME280;60655;52.182;4.474;2022-08-16T04:39:29;100656.03;;;20.03;79.35
72612;BME280;60655;52.182;4.474;2022-08-16T04:41:31;100660.50;;;19.89;79.98
72612;BME280;60655;52.182;4.474;2022-08-16T04:43:31;100652.72;;;19.82;79.99
72612;BME280;60655;52.182;4.474;2022-08-16T04:45:33;100653.88;;;19.71;81.29
72612;BME280;60655;52.182;4.474;2022-08-16T04:47:34;100650.41;;;19.66;81.41
72612;BME280;60655;52.182;4.474;2022-08-16T04:49:35;100646.84;;;19.75;80.83
72612;BME280;60655;52.182;4.474;2022-08-16T04:51:37;100653.81;;;19.81;80.35
72612;BME280;60655;52.182;4.474;2022-08-16T04:53:41;100657.78;;;19.89;79.66
72612;BME280;60655;52.182;4.474;2022-08-16T04:55:42;100651.34;;;19.85;79.75
72612;BME280;60655;52.182;4.474;2022-08-16T04:57:45;100660.13;;;19.96;79.88
72612;BME280;60655;52.182;4.474;2022-08-16T04:59:47;100654.22;;;19.94;79.56
72612;BME280;60655;52.182;4.474;2022-08-16T05:01:48;100654.66;;;20.06;79.18
72612;BME280;60655;52.182;4.474;2022-08-16T05:03:49;100650.97;;;19.97;79.12
72612;BME280;60655;52.182;4.474;2022-08-16T05:05:50;100653.22;;;19.89;80.28
72612;BME280;60655;52.182;4.474;2022-08-16T05:07:52;100647.53;;;19.91;80.14
72612;BME280;60655;52.182;4.474;2022-08-16T05:09:52;100660.34;;;20.04;79.80
72612;BME280;60655;52.182;4.474;2022-08-16T05:11:53;100657.41;;;20.01;79.64
72612;BME280;60655;52.182;4.474;2022-08-16T05:13:55;100659.63;;;19.94;79.97
72612;BME280;60655;52.182;4.474;2022-08-16T05:15:56;100658.50;;;20.00;79.43
72612;BME280;60655;52.182;4.474;2022-08-16T05:17:57;100666.81;;;20.03;79.29
72612;BME280;60655;52.182;4.474;2022-08-16T05:19:58;100670.88;;;20.01;79.84
72612;BME280;60655;52.182;4.474;2022-08-16T05:21:59;100674.88;;;20.08;79.57
72612;BME280;60655;52.182;4.474;2022-08-16T05:24:00;100662.91;;;20.19;78.41
72612;BME280;60655;52.182;4.474;2022-08-16T05:26:01;100667.16;;;20.26;78.38
72612;BME280;60655;52.182;4.474;2022-08-16T05:28:02;100665.53;;;20.24;78.52
72612;BME280;60655;52.182;4.474;2022-08-16T05:30:04;100674.34;;;20.06;79.91
72612;BME280;60655;52.182;4.474;2022-08-16T05:32:06;100680.97;;;19.90;80.95
72612;BME280;60655;52.182;4.474;2022-08-16T05:34:08;100672.50;;;20.02;80.48
72612;BME280;60655;52.182;4.474;2022-08-16T05:36:09;100676.28;;;20.01;80.50
72612;BME280;60655;52.182;4.474;2022-08-16T05:38:10;100678.13;;;20.05;80.42
72612;BME280;60655;52.182;4.474;2022-08-16T05:40:12;100675.13;;;20.12;80.19
72612;BME280;60655;52.182;4.474;2022-08-16T05:42:13;100688.56;;;20.17;79.88
72612;BME280;60655;52.182;4.474;2022-08-16T05:44:14;100699.63;;;20.15;80.38
72612;BME280;60655;52.182;4.474;2022-08-16T05:46:16;100691.16;;;20.27;79.79
72612;BME280;60655;52.182;4.474;2022-08-16T05:48:17;100696.38;;;20.18;80.43
72612;BME280;60655;52.182;4.474;2022-08-16T05:50:18;100694.47;;;20.19;80.67
72612;BME280;60655;52.182;4.474;2022-08-16T05:52:19;100687.06;;;20.01;81.32
72612;BME280;60655;52.182;4.474;2022-08-16T05:54:22;100691.97;;;20.28;80.46
72612;BME280;60655;52.182;4.474;2022-08-16T05:56:23;100701.34;;;20.35;80.14
72612;BME280;60655;52.182;4.474;2022-08-16T05:58:24;100701.09;;;20.32;80.16
72612;BME280;60655;52.182;4.474;2022-08-16T06:00:25;100700.53;;;20.35;79.92
72612;BME280;60655;52.182;4.474;2022-08-16T06:02:26;100709.91;;;20.47;79.59
72612;BME280;60655;52.182;4.474;2022-08-16T06:04:30;100708.28;;;20.46;79.52
72612;BME280;60655;52.182;4.474;2022-08-16T06:06:31;100710.25;;;20.36;80.76
72612;BME280;60655;52.182;4.474;2022-08-16T06:08:32;100701.28;;;20.45;79.63
72612;BME280;60655;52.182;4.474;2022-08-16T06:10:33;100697.03;;;20.39;80.63
72612;BME280;60655;52.182;4.474;2022-08-16T06:12:35;100696.69;;;20.46;80.74
72612;BME280;60655;52.182;4.474;2022-08-16T06:14:36;100698.47;;;20.55;80.14
72612;BME280;60655;52.182;4.474;2022-08-16T06:16:37;100693.81;;;20.61;79.68
72612;BME280;60655;52.182;4.474;2022-08-16T06:18:38;100701.81;;;20.71;79.13
72612;BME280;60655;52.182;4.474;2022-08-16T06:20:39;100701.59;;;20.68;79.78
72612;BME280;60655;52.182;4.474;2022-08-16T06:22:40;100712.09;;;20.69;79.25
72612;BME280;60655;52.182;4.474;2022-08-16T06:24:42;100717.16;;;20.76;79.79
72612;BME280;60655;52.182;4.474;2022-08-16T06:26:44;100730.16;;;20.74;79.97
72612;BME280;60655;52.182;4.474;2022-08-16T06:28:45;100723.41;;;20.71;80.03
72612;BME280;60655;52.182;4.474;2022-08-16T06:30:46;100721.47;;;20.77;79.70
72612;BME280;60655;52.182;4.474;2022-08-16T06:32:47;100722.78;;;20.79;80.35
72612;BME280;60655;52.182;4.474;2022-08-16T06:34:48;100721.81;;;20.70;80.63
72612;BME280;60655;52.182;4.474;2022-08-16T06:36:50;100725.56;;;20.74;80.58
72612;BME280;60655;52.182;4.474;2022-08-16T06:38:54;100724.75;;;20.74;80.89
72612;BME280;60655;52.182;4.474;2022-08-16T06:40:55;100720.53;;;20.86;80.68
72612;BME280;60655;52.182;4.474;2022-08-16T06:42:56;100717.25;;;20.89;81.13
72612;BME280;60655;52.182;4.474;2022-08-16T06:44:57;100724.78;;;20.93;80.36
72612;BME280;60655;52.182;4.474;2022-08-16T06:46:58;100707.09;;;21.05;79.50
72612;BME280;60655;52.182;4.474;2022-08-16T06:49:01;100708.78;;;21.01;80.13
72612;BME280;60655;52.182;4.474;2022-08-16T06:51:05;100720.44;;;21.20;79.52
72612;BME280;60655;52.182;4.474;2022-08-16T06:53:06;100722.84;;;21.22;79.40
72612;BME280;60655;52.182;4.474;2022-08-16T06:55:09;100706.34;;;21.23;79.33
72612;BME280;60655;52.182;4.474;2022-08-16T06:57:10;100710.97;;;21.23;80.49
72612;BME280;60655;52.182;4.474;2022-08-16T06:59:13;100712.72;;;21.33;80.31
72612;BME280;60655;52.182;4.474;2022-08-16T07:01:14;100713.53;;;21.33;79.81
72612;BME280;60655;52.182;4.474;2022-08-16T07:03:15;100726.25;;;21.51;79.21
72612;BME280;60655;52.182;4.474;2022-08-16T07:05:16;100717.19;;;21.42;81.04
72612;BME280;60655;52.182;4.474;2022-08-16T07:07:18;100721.78;;;21.42;81.78
72612;BME280;60655;52.182;4.474;2022-08-16T07:09:20;100737.28;;;21.55;81.56
72612;BME280;60655;52.182;4.474;2022-08-16T07:11:21;100718.59;;;21.59;80.04
72612;BME280;60655;52.182;4.474;2022-08-16T07:13:22;100733.25;;;21.71;80.13
72612;BME280;60655;52.182;4.474;2022-08-16T07:15:23;100737.00;;;21.75;80.25
72612;BME280;60655;52.182;4.474;2022-08-16T07:17:25;100734.22;;;21.80;80.56
72612;BME280;60655;52.182;4.474;2022-08-16T07:19:28;100738.16;;;21.88;80.00
72612;BME280;60655;52.182;4.474;2022-08-16T07:21:32;100734.28;;;21.94;79.62
72612;BME280;60655;52.182;4.474;2022-08-16T07:23:32;100739.34;;;22.01;80.83
72612;BME280;60655;52.182;4.474;2022-08-16T07:25:34;100739.34;;;21.82;80.74
72612;BME280;60655;52.182;4.474;2022-08-16T07:27:36;100739.69;;;21.75;80.91
72612;BME280;60655;52.182;4.474;2022-08-16T07:29:38;100733.13;;;21.81;81.29
72612;BME280;60655;52.182;4.474;2022-08-16T07:31:39;100740.13;;;21.82;80.25
72612;BME280;60655;52.182;4.474;2022-08-16T07:33:41;100737.38;;;21.87;81.05
72612;BME280;60655;52.182;4.474;2022-08-16T07:35:42;100743.41;;;21.79;82.40
72612;BME280;60655;52.182;4.474;2022-08-16T07:37:44;100753.31;;;21.89;79.37
72612;BME280;60655;52.182;4.474;2022-08-16T07:39:45;100749.63;;;21.99;79.22
72612;BME280;60655;52.182;4.474;2022-08-16T07:41:46;100753.31;;;21.89;80.98
72612;BME280;60655;52.182;4.474;2022-08-16T07:43:47;100755.50;;;21.87;79.59
72612;BME280;60655;52.182;4.474;2022-08-16T07:45:48;100743.00;;;21.91;80.58
72612;BME280;60655;52.182;4.474;2022-08-16T07:47:49;100769.75;;;22.11;78.25
72612;BME280;60655;52.182;4.474;2022-08-16T07:49:50;100764.09;;;22.27;77.64
72612;BME280;60655;52.182;4.474;2022-08-16T07:51:51;100765.44;;;22.10;78.36
72612;BME280;60655;52.182;4.474;2022-08-16T07:53:52;100764.25;;;22.16;79.13
72612;BME280;60655;52.182;4.474;2022-08-16T07:55:53;100765.66;;;22.14;79.27
72612;BME280;60655;52.182;4.474;2022-08-16T07:57:54;100757.31;;;22.10;79.02
72612;BME280;60655;52.182;4.474;2022-08-16T07:59:56;100768.69;;;22.26;79.38
72612;BME280;60655;52.182;4.474;2022-08-16T08:01:57;100766.72;;;22.32;78.29
72612;BME280;60655;52.182;4.474;2022-08-16T08:03:58;100756.19;;;22.30;77.11
72612;BME280;60655;52.182;4.474;2022-08-16T08:05:59;100772.84;;;22.37;77.85
72612;BME280;60655;52.182;4.474;2022-08-16T08:08:00;100777.50;;;22.50;78.60
72612;BME280;60655;52.182;4.474;2022-08-16T08:10:04;100774.28;;;22.48;77.17
72612;BME280;60655;52.182;4.474;2022-08-16T08:12:05;100777.69;;;22.54;76.35
72612;BME280;60655;52.182;4.474;2022-08-16T08:14:06;100772.56;;;22.52;76.06
72612;BME280;60655;52.182;4.474;2022-08-16T08:16:08;100784.69;;;22.41;76.28
72612;BME280;60655;52.182;4.474;2022-08-16T08:18:10;100773.22;;;22.63;75.53
72612;BME280;60655;52.182;4.474;2022-08-16T08:20:15;100778.19;;;22.42;76.22
72612;BME280;60655;52.182;4.474;2022-08-16T08:22:16;100772.84;;;22.70;75.13
72612;BME280;60655;52.182;4.474;2022-08-16T08:24:17;100776.25;;;22.75;74.80
72612;BME280;60655;52.182;4.474;2022-08-16T08:26:18;100781.72;;;22.89;76.17
72612;BME280;60655;52.182;4.474;2022-08-16T08:28:19;100782.34;;;23.00;76.04
72612;BME280;60655;52.182;4.474;2022-08-16T08:30:20;100780.72;;;22.99;75.27
72612;BME280;60655;52.182;4.474;2022-08-16T08:32:21;100780.22;;;23.10;75.37
72612;BME280;60655;52.182;4.474;2022-08-16T08:34:22;100783.13;;;23.14;74.53
72612;BME280;60655;52.182;4.474;2022-08-16T08:36:29;100773.19;;;22.96;74.70
72612;BME280;60655;52.182;4.474;2022-08-16T08:38:30;100781.53;;;22.99;74.79
72612;BME280;60655;52.182;4.474;2022-08-16T08:40:31;100780.03;;;23.20;74.60
72612;BME280;60655;52.182;4.474;2022-08-16T08:42:32;100784.13;;;23.32;74.77
72612;BME280;60655;52.182;4.474;2022-08-16T08:44:33;100785.00;;;23.41;72.74
72612;BME280;60655;52.182;4.474;2022-08-16T08:46:35;100800.00;;;23.38;72.23
72612;BME280;60655;52.182;4.474;2022-08-16T08:48:36;100795.47;;;23.47;73.15
72612;BME280;60655;52.182;4.474;2022-08-16T08:50:37;100800.31;;;23.64;72.95
72612;BME280;60655;52.182;4.474;2022-08-16T08:52:38;100806.00;;;23.76;72.43
72612;BME280;60655;52.182;4.474;2022-08-16T08:54:39;100820.19;;;23.60;72.10
72612;BME280;60655;52.182;4.474;2022-08-16T08:56:41;100815.38;;;23.56;71.82
72612;BME280;60655;52.182;4.474;2022-08-16T08:58:42;100822.88;;;23.73;71.79
72612;BME280;60655;52.182;4.474;2022-08-16T09:00:43;100821.78;;;23.74;72.26
72612;BME280;60655;52.182;4.474;2022-08-16T09:02:44;100803.53;;;23.52;72.46
72612;BME280;60655;52.182;4.474;2022-08-16T09:04:45;100821.06;;;23.69;72.71
72612;BME280;60655;52.182;4.474;2022-08-16T09:06:46;100817.09;;;23.66;73.70
72612;BME280;60655;52.182;4.474;2022-08-16T09:08:47;100830.00;;;23.83;72.99
72612;BME280;60655;52.182;4.474;2022-08-16T09:10:48;100814.31;;;23.80;72.78
72612;BME280;60655;52.182;4.474;2022-08-16T09:12:50;100823.97;;;23.72;72.12
72612;BME280;60655;52.182;4.474;2022-08-16T09:14:50;100829.53;;;23.53;72.33
72612;BME280;60655;52.182;4.474;2022-08-16T09:16:51;100834.22;;;23.75;71.78
72612;BME280;60655;52.182;4.474;2022-08-16T09:18:53;100826.59;;;23.50;70.40
72612;BME280;60655;52.182;4.474;2022-08-16T09:20:55;100838.84;;;23.47;70.95
72612;BME280;60655;52.182;4.474;2022-08-16T09:22:57;100841.75;;;23.51;72.16
72612;BME280;60655;52.182;4.474;2022-08-16T09:24:59;100836.16;;;23.61;72.44
72612;BME280;60655;52.182;4.474;2022-08-16T09:27:00;100837.75;;;23.76;72.06
72612;BME280;60655;52.182;4.474;2022-08-16T09:29:01;100824.47;;;23.74;71.72
72612;BME280;60655;52.182;4.474;2022-08-16T09:31:03;100826.81;;;23.67;71.31
72612;BME280;60655;52.182;4.474;2022-08-16T09:33:04;100822.84;;;23.87;71.00
72612;BME280;60655;52.182;4.474;2022-08-16T09:35:07;100825.31;;;23.97;71.34
72612;BME280;60655;52.182;4.474;2022-08-16T09:37:08;100833.53;;;24.19;71.23
72612;BME280;60655;52.182;4.474;2022-08-16T09:39:09;100837.66;;;24.17;70.56
72612;BME280;60655;52.182;4.474;2022-08-16T09:41:11;100835.47;;;24.05;71.92
72612;BME280;60655;52.182;4.474;2022-08-16T09:43:15;100844.81;;;24.13;70.82
72612;BME280;60655;52.182;4.474;2022-08-16T09:45:16;100839.28;;;24.04;72.72
72612;BME280;60655;52.182;4.474;2022-08-16T09:47:17;100840.50;;;23.98;72.10
72612;BME280;60655;52.182;4.474;2022-08-16T09:49:19;100848.09;;;24.23;71.90
72612;BME280;60655;52.182;4.474;2022-08-16T09:51:20;100853.25;;;24.47;70.99
72612;BME280;60655;52.182;4.474;2022-08-16T09:53:23;100850.09;;;24.32;70.33
72612;BME280;60655;52.182;4.474;2022-08-16T09:55:24;100842.38;;;24.25;70.01
72612;BME280;60655;52.182;4.474;2022-08-16T09:57:25;100845.34;;;24.37;69.89
72612;BME280;60655;52.182;4.474;2022-08-16T09:59:25;100848.84;;;24.38;70.20
72612;BME280;60655;52.182;4.474;2022-08-16T10:01:27;100843.22;;;24.56;68.74
72612;BME280;60655;52.182;4.474;2022-08-16T10:03:28;100847.50;;;24.49;69.36
72612;BME280;60655;52.182;4.474;2022-08-16T10:05:29;100838.97;;;24.64;70.58
72612;BME280;60655;52.182;4.474;2022-08-16T10:07:30;100837.13;;;24.73;69.60
72612;BME280;60655;52.182;4.474;2022-08-16T10:09:32;100846.13;;;24.82;70.21
72612;BME280;60655;52.182;4.474;2022-08-16T10:11:36;100857.44;;;24.76;69.21
72612;BME280;60655;52.182;4.474;2022-08-16T10:13:55;100857.88;;;24.69;68.42
72612;BME280;60655;52.182;4.474;2022-08-16T10:15:56;100848.22;;;24.63;69.46
72612;BME280;60655;52.182;4.474;2022-08-16T10:18:00;100855.09;;;24.83;68.64
72612;BME280;60655;52.182;4.474;2022-08-16T10:20:01;100849.16;;;24.81;68.35
72612;BME280;60655;52.182;4.474;2022-08-16T10:22:05;100858.06;;;24.73;68.46
72612;BME280;60655;52.182;4.474;2022-08-16T10:24:06;100859.22;;;24.80;69.48
72612;BME280;60655;52.182;4.474;2022-08-16T10:26:07;100861.31;;;24.61;68.80
72612;BME280;60655;52.182;4.474;2022-08-16T10:28:08;100859.97;;;24.72;70.05
72612;BME280;60655;52.182;4.474;2022-08-16T10:30:09;100848.19;;;24.77;69.86
72612;BME280;60655;52.182;4.474;2022-08-16T10:32:11;100864.59;;;24.72;68.84
72612;BME280;60655;52.182;4.474;2022-08-16T10:34:12;100863.56;;;24.81;65.87
72612;BME280;60655;52.182;4.474;2022-08-16T10:36:13;100868.19;;;24.81;67.62
72612;BME280;60655;52.182;4.474;2022-08-16T10:38:14;100858.34;;;24.94;67.91
72612;BME280;60655;52.182;4.474;2022-08-16T10:40:16;100869.44;;;24.83;68.25